createdAt,value
2023-02-01T00:00:56.745Z,96241.03
2023-02-01T00:03:25.549Z,96230.88
2023-02-01T00:05:59.773Z,96226.69
2023-02-01T00:08:31.311Z,96210.31
2023-02-01T00:11:03.659Z,96227.94
2023-02-01T00:13:32.686Z,96212.75
2023-02-01T00:16:11.168Z,96227.25
2023-02-01T00:18:39.967Z,96224.78
2023-02-01T00:21:08.813Z,96222.25
2023-02-01T00:23:38.543Z,96219.72
2023-02-01T00:26:13.787Z,96225.69
2023-02-01T00:28:48.562Z,96230.88
2023-02-01T00:31:18.947Z,96211.34
2023-02-01T00:33:49.474Z,96229.03
2023-02-01T00:36:19.148Z,96209.69
2023-02-01T00:38:47.548Z,96207.16
2023-02-01T00:41:18.318Z,96209.16
2023-02-01T00:43:47.560Z,96198.81
2023-02-01T00:46:19.182Z,96222.34
2023-02-01T00:48:49.086Z,96211.47
2023-02-01T00:51:19.347Z,96210.59
2023-02-01T00:53:48.007Z,96203.47
2023-02-01T00:56:16.787Z,96213.81
2023-02-01T00:58:46.172Z,96207.84
2023-02-01T01:01:15.997Z,96213.88
2023-02-01T01:03:46.822Z,96210.22
2023-02-01T01:06:18.271Z,96203.63
2023-02-01T01:08:48.114Z,96207.78
2023-02-01T01:11:18.812Z,96205.94
2023-02-01T01:13:49.491Z,96204.16
2023-02-01T01:16:18.889Z,96199.78
2023-02-01T01:18:50.646Z,96197.47
2023-02-01T01:21:21.000Z,96188.16
2023-02-01T01:23:50.068Z,96188.97
2023-02-01T01:26:20.371Z,96172.97
2023-02-01T01:28:49.397Z,96180.44
2023-02-01T01:31:19.788Z,96170.53
2023-02-01T01:33:51.303Z,96153.78
2023-02-01T01:36:32.179Z,96166.44
2023-02-01T01:39:00.680Z,96172.97
2023-02-01T01:41:31.966Z,96164.44
2023-02-01T01:44:04.205Z,96162.66
2023-02-01T01:46:35.383Z,96157.72
2023-02-01T01:49:08.442Z,96158.63
2023-02-01T01:52:29.449Z,96159.66
2023-02-01T01:55:02.528Z,96144.56
2023-02-01T01:57:34.430Z,96150.38
2023-02-01T02:00:06.509Z,96148.28
2023-02-01T02:02:35.049Z,96156.63
2023-02-01T02:05:04.343Z,96149.19
2023-02-01T02:10:08.055Z,96150.09
2023-02-01T02:12:36.874Z,96152.56
2023-02-01T02:15:08.490Z,96139.38
2023-02-01T02:17:39.825Z,96157.91
2023-02-01T02:20:49.748Z,96166.13
2023-02-01T02:23:41.163Z,96159.50
2023-02-01T02:26:40.949Z,96164.34
2023-02-01T02:29:51.941Z,96171.84
2023-02-01T02:32:52.784Z,96162.34
2023-02-01T02:35:29.708Z,96154.91
2023-02-01T02:38:06.245Z,96155.66
2023-02-01T02:40:38.770Z,96151.69
2023-02-01T02:43:29.468Z,96166.66
2023-02-01T02:46:28.280Z,96162.25
2023-02-01T02:49:01.696Z,96165.09
2023-02-01T02:51:52.353Z,96164.06
2023-02-01T02:54:41.840Z,96160.41
2023-02-01T02:57:30.452Z,96163.63
2023-02-01T03:00:18.068Z,96169.19
2023-02-01T03:03:04.513Z,96160.88
2023-02-01T03:05:36.473Z,96159.03
2023-02-01T03:08:08.065Z,96156.13
2023-02-01T03:10:51.576Z,96157.09
2023-02-01T03:13:26.803Z,96158.56
2023-02-01T03:16:01.416Z,96152.75
2023-02-01T03:18:36.461Z,96159.41
2023-02-01T03:21:08.742Z,96152.56
2023-02-01T03:23:39.628Z,96164.53
2023-02-01T03:26:11.105Z,96163.63
2023-02-01T03:28:42.074Z,96152.56
2023-02-01T03:31:10.871Z,96142.44
2023-02-01T03:33:39.519Z,96139.91
2023-02-01T03:36:15.461Z,96141.38
2023-02-01T03:42:31.447Z,96134.16
2023-02-01T03:45:08.471Z,96150.22
2023-02-01T03:47:39.160Z,96136.19
2023-02-01T03:50:10.241Z,96133.84
2023-02-01T03:52:41.247Z,96118.31
2023-02-01T03:55:11.201Z,96125.38
2023-02-01T03:57:44.314Z,96132.06
2023-02-01T04:00:19.435Z,96125.47
2023-02-01T04:02:48.401Z,96127.16
2023-02-01T04:05:26.051Z,96112.94
2023-02-01T04:07:55.485Z,96122.03
2023-02-01T04:10:24.046Z,96131.25
2023-02-01T04:12:54.130Z,96115.84
2023-02-01T04:15:22.761Z,96136.84
2023-02-01T04:17:51.173Z,96132.00
2023-02-01T04:20:20.832Z,96130.66
2023-02-01T04:22:49.683Z,96124.72
2023-02-01T04:25:18.539Z,96123.22
2023-02-01T04:27:47.395Z,96127.25
2023-02-01T04:30:18.181Z,96128.50
2023-02-01T04:33:36.845Z,96125.97
2023-02-01T04:36:08.575Z,96130.22
2023-02-01T04:38:37.661Z,96126.66
2023-02-01T04:41:06.885Z,96121.06
2023-02-01T04:43:35.177Z,96118.97
2023-02-01T04:46:30.292Z,96116.06
2023-02-01T04:48:59.000Z,96115.47
2023-02-01T04:51:27.893Z,96104.38
2023-02-01T04:53:56.984Z,96112.56
2023-02-01T04:56:25.662Z,96101.34
2023-02-01T04:58:59.495Z,96099.56
2023-02-01T05:01:32.729Z,96100.72
2023-02-01T05:04:02.241Z,96098.50
2023-02-01T05:06:30.879Z,96105.66
2023-02-01T05:08:59.751Z,96111.66
2023-02-01T05:11:45.535Z,96116.97
2023-02-01T05:14:14.485Z,96127.09
2023-02-01T05:16:44.782Z,96110.63
2023-02-01T05:19:13.866Z,96109.38
2023-02-01T05:21:42.829Z,96105.06
2023-02-01T05:24:14.432Z,96081.59
2023-02-01T05:26:43.805Z,96080.56
2023-02-01T05:29:13.049Z,96100.88
2023-02-01T05:31:42.167Z,96102.53
2023-02-01T05:34:12.585Z,96103.41
2023-02-01T05:37:05.950Z,96107.88
2023-02-01T05:39:34.343Z,96100.16
2023-02-01T05:42:04.689Z,96094.19
2023-02-01T05:44:33.103Z,96098.56
2023-02-01T05:47:01.794Z,96117.56
2023-02-01T05:49:34.617Z,96105.81
2023-02-01T05:52:03.812Z,96098.81
2023-02-01T05:54:51.865Z,96110.13
2023-02-01T05:57:20.797Z,96105.81
2023-02-01T05:59:49.938Z,96112.84
2023-02-01T06:02:18.946Z,96108.94
2023-02-01T06:04:49.178Z,96120.59
2023-02-01T06:07:19.851Z,96122.19
2023-02-01T06:09:49.294Z,96108.31
2023-02-01T06:12:18.124Z,96126.16
2023-02-01T06:14:46.801Z,96108.69
2023-02-01T06:17:17.633Z,96111.38
2023-02-01T06:19:50.762Z,96105.78
2023-02-01T06:22:19.625Z,96105.91
2023-02-01T06:24:48.389Z,96112.75
2023-02-01T06:27:17.517Z,96121.56
2023-02-01T06:29:46.187Z,96112.63
2023-02-01T06:32:15.163Z,96120.38
2023-02-01T06:35:03.728Z,96109.50
2023-02-01T06:37:32.910Z,96123.03
2023-02-01T06:40:01.745Z,96129.91
2023-02-01T06:42:30.470Z,96134.06
2023-02-01T06:45:02.183Z,96136.59
2023-02-01T06:47:31.110Z,96121.25
2023-02-01T06:50:00.301Z,96136.50
2023-02-01T06:52:30.676Z,96130.63
2023-02-01T06:54:59.280Z,96131.44
2023-02-01T06:57:31.850Z,96126.38
2023-02-01T07:00:01.095Z,96128.91
2023-02-01T07:02:29.784Z,96136.50
2023-02-01T07:04:58.500Z,96127.28
2023-02-01T07:07:28.627Z,96123.94
2023-02-01T07:09:58.567Z,96128.25
2023-02-01T07:12:27.254Z,96136.59
2023-02-01T07:14:55.668Z,96135.75
2023-02-01T07:17:28.246Z,96140.13
2023-02-01T07:19:56.973Z,96140.06
2023-02-01T07:22:29.252Z,96136.84
2023-02-01T07:24:59.792Z,96120.88
2023-02-01T07:27:29.371Z,96126.00
2023-02-01T07:30:03.256Z,96131.69
2023-02-01T07:32:32.049Z,96146.56
2023-02-01T07:35:00.923Z,96141.50
2023-02-01T07:37:29.442Z,96142.41
2023-02-01T07:39:59.390Z,96132.88
2023-02-01T07:42:28.009Z,96140.41
2023-02-01T07:44:58.564Z,96127.31
2023-02-01T07:47:28.353Z,96114.50
2023-02-01T07:49:56.983Z,96115.19
2023-02-01T07:52:26.758Z,96115.53
2023-02-01T07:54:56.090Z,96102.22
2023-02-01T07:57:28.986Z,96094.94
2023-02-01T08:00:14.712Z,96107.59
2023-02-01T08:02:45.396Z,96091.13
2023-02-01T08:05:13.991Z,96088.59
2023-02-01T08:07:42.761Z,96093.50
2023-02-01T08:10:12.688Z,96088.38
2023-02-01T08:12:43.061Z,96092.59
2023-02-01T08:15:14.348Z,96082.19
2023-02-01T08:18:03.608Z,96082.56
2023-02-01T08:20:34.863Z,96085.84
2023-02-01T08:23:04.560Z,96068.88
2023-02-01T08:25:33.162Z,96068.41
2023-02-01T08:28:03.379Z,96070.28
2023-02-01T08:30:32.112Z,96060.22
2023-02-01T08:33:02.389Z,96060.44
2023-02-01T08:35:42.706Z,96059.69
2023-02-01T08:38:12.777Z,96052.94
2023-02-01T08:40:42.547Z,96056.28
2023-02-01T08:43:15.546Z,96053.69
2023-02-01T08:45:44.074Z,96047.41
2023-02-01T08:48:12.607Z,96053.22
2023-02-01T08:50:49.081Z,96046.50
2023-02-01T08:53:17.959Z,96050.69
2023-02-01T08:55:48.382Z,96048.91
2023-02-01T08:58:19.253Z,96050.63
2023-02-01T09:00:49.287Z,96037.28
2023-02-01T09:03:18.535Z,96041.03
2023-02-01T09:05:49.856Z,96044.59
2023-02-01T09:08:20.048Z,96041.53
2023-02-01T09:10:49.071Z,96040.72
2023-02-01T09:13:19.340Z,96043.19
2023-02-01T09:15:48.185Z,96038.50
2023-02-01T09:18:17.212Z,96037.84
2023-02-01T09:20:46.366Z,96033.13
2023-02-01T09:23:15.009Z,96035.59
2023-02-01T09:25:47.940Z,96050.72
2023-02-01T09:28:18.272Z,96046.00
2023-02-01T09:30:48.670Z,96044.47
2023-02-01T09:33:18.876Z,96039.22
2023-02-01T09:35:47.908Z,96045.03
2023-02-01T09:38:16.705Z,96040.06
2023-02-01T09:40:49.411Z,96030.72
2023-02-01T09:43:26.791Z,96048.16
2023-02-01T09:46:22.724Z,96041.81
2023-02-01T09:48:52.123Z,96042.59
2023-02-01T09:51:24.715Z,96040.94
2023-02-01T09:54:02.606Z,96042.28
2023-02-01T09:56:37.144Z,96037.38
2023-02-01T09:59:13.724Z,96041.75
2023-02-01T10:01:44.153Z,96040.09
2023-02-01T10:04:15.708Z,96036.69
2023-02-01T10:06:55.289Z,96019.06
2023-02-01T10:09:36.681Z,96023.28
2023-02-01T10:12:34.119Z,96033.59
2023-02-01T10:15:13.540Z,96026.78
2023-02-01T10:18:17.143Z,96027.63
2023-02-01T10:20:55.939Z,96017.06
2023-02-01T10:23:38.883Z,96021.69
2023-02-01T10:26:12.011Z,96017.19
2023-02-01T10:28:41.640Z,96005.22
2023-02-01T10:31:12.142Z,96001.16
2023-02-01T10:33:45.668Z,95998.22
2023-02-01T10:36:18.355Z,95996.59
2023-02-01T10:38:47.941Z,95996.50
2023-02-01T10:41:22.627Z,96000.19
2023-02-01T10:43:53.511Z,95985.72
2023-02-01T10:46:25.447Z,95990.78
2023-02-01T10:48:57.927Z,95982.22
2023-02-01T10:51:29.871Z,95992.34
2023-02-01T10:54:04.879Z,95985.31
2023-02-01T10:56:34.052Z,95984.41
2023-02-01T10:59:03.578Z,95990.47
2023-02-01T11:01:36.714Z,96007.91
2023-02-01T11:04:09.321Z,95999.06
2023-02-01T11:06:41.326Z,95996.53
2023-02-01T11:09:19.422Z,96000.22
2023-02-01T11:12:02.955Z,95998.94
2023-02-01T11:14:41.181Z,96008.69
2023-02-01T11:17:25.247Z,96012.19
2023-02-01T11:20:18.159Z,96011.59
2023-02-01T11:22:51.068Z,96014.72
2023-02-01T11:25:20.463Z,96017.81
2023-02-01T11:27:55.386Z,96022.56
2023-02-01T11:30:30.042Z,96012.03
2023-02-01T11:33:00.208Z,96015.56
2023-02-01T11:35:31.066Z,96013.22
2023-02-01T11:38:01.148Z,96009.44
2023-02-01T11:40:31.591Z,96021.38
2023-02-01T11:43:01.770Z,96007.38
2023-02-01T11:45:32.005Z,96013.59
2023-02-01T11:48:01.834Z,96013.84
2023-02-01T11:50:40.468Z,96018.00
2023-02-01T11:53:30.351Z,96010.31
2023-02-01T11:56:05.302Z,96014.81
2023-02-01T11:59:16.080Z,96010.09
2023-02-01T12:01:58.870Z,96028.50
2023-02-01T12:04:56.360Z,96038.81
2023-02-01T12:07:33.112Z,96018.88
2023-02-01T12:10:10.427Z,96026.84
2023-02-01T12:12:46.705Z,96040.09
2023-02-01T12:15:25.413Z,96022.28
2023-02-01T12:18:15.227Z,96029.50
2023-02-01T12:20:59.439Z,96015.22
2023-02-01T12:23:49.043Z,96032.59
2023-02-01T12:26:40.798Z,96020.88
2023-02-01T12:29:21.318Z,96031.19
2023-02-01T12:32:04.046Z,96027.75
2023-02-01T12:34:58.372Z,96024.34
2023-02-01T12:37:45.813Z,96024.41
2023-02-01T12:40:36.176Z,96017.47
2023-02-01T12:43:10.747Z,96010.53
2023-02-01T12:45:45.654Z,96007.56
2023-02-01T12:48:28.349Z,95995.47
2023-02-01T12:51:03.551Z,96003.47
2023-02-01T12:53:40.319Z,96007.22
2023-02-01T12:56:17.301Z,95998.63
2023-02-01T12:58:48.697Z,96018.69
2023-02-01T13:01:32.032Z,96030.44
2023-02-01T13:04:07.256Z,96021.00
2023-02-01T13:06:39.999Z,96009.91
2023-02-01T13:09:15.507Z,96013.63
2023-02-01T13:11:48.726Z,96010.38
2023-02-01T13:14:28.455Z,96012.59
2023-02-01T13:17:02.360Z,96013.44
2023-02-01T13:19:47.590Z,96014.44
2023-02-01T13:22:44.743Z,96005.22
2023-02-01T13:25:22.456Z,95997.41
2023-02-01T13:27:55.669Z,96003.16
2023-02-01T13:30:29.697Z,96002.25
2023-02-01T13:33:53.309Z,96001.28
2023-02-01T13:37:10.075Z,96008.03
2023-02-01T13:40:46.513Z,96006.94
2023-02-01T14:27:38.223Z,96020.44
2023-02-01T14:30:10.300Z,96013.97
2023-02-01T14:32:42.063Z,96038.03
2023-02-01T14:35:29.260Z,96022.94
2023-02-01T14:38:09.366Z,96020.72
2023-02-01T14:40:39.416Z,96020.16
2023-02-01T14:43:26.789Z,96024.19
2023-02-01T14:46:01.316Z,96022.41
2023-02-01T14:48:48.138Z,96030.53
2023-02-01T14:51:23.773Z,96030.84
2023-02-01T14:53:53.327Z,96030.13
2023-02-01T14:56:23.601Z,96027.25
2023-02-01T14:58:59.556Z,96021.09
2023-02-01T15:01:31.694Z,96028.81
2023-02-01T15:04:04.903Z,96023.81
2023-02-01T15:06:40.373Z,96031.34
2023-02-01T15:09:15.293Z,96023.66
2023-02-01T15:12:21.613Z,96020.78
2023-02-01T15:15:05.355Z,96026.16
2023-02-01T15:17:35.364Z,96010.16
2023-02-01T15:20:19.014Z,96021.69
2023-02-01T15:22:56.196Z,96022.56
2023-02-01T15:25:26.742Z,96018.19
2023-02-01T15:27:59.695Z,96016.41
2023-02-01T15:30:33.249Z,96020.88
2023-02-01T15:33:09.952Z,96026.09
2023-02-01T15:35:44.581Z,96020.28
2023-02-01T15:38:40.413Z,96015.88
2023-02-01T15:41:12.120Z,96024.44
2023-02-01T15:43:45.081Z,96026.00
2023-02-01T15:46:16.648Z,96030.00
2023-02-01T15:48:48.133Z,96023.31
2023-02-01T15:51:22.471Z,96031.66
2023-02-01T15:53:56.791Z,96031.59
2023-02-01T15:56:27.730Z,96028.38
2023-02-01T15:59:00.951Z,96027.44
2023-02-01T16:01:30.698Z,96025.09
2023-02-01T16:04:09.867Z,96033.28
2023-02-01T16:06:47.055Z,96025.53
2023-02-01T16:09:19.540Z,96023.31
2023-02-01T16:11:56.050Z,96020.03
2023-02-01T16:14:26.849Z,96030.25
2023-02-01T16:16:57.079Z,96031.88
2023-02-01T16:19:29.330Z,96039.47
2023-02-01T16:21:59.636Z,96037.84
2023-02-01T16:24:28.897Z,96051.50
2023-02-01T16:26:59.081Z,96054.59
2023-02-01T16:29:29.791Z,96059.09
2023-02-01T16:31:58.624Z,96062.88
2023-02-01T16:34:27.823Z,96042.88
2023-02-01T16:36:58.380Z,96039.66
2023-02-01T16:39:29.378Z,96036.63
2023-02-01T16:42:00.629Z,96046.56
2023-02-01T16:44:31.203Z,96037.13
2023-02-01T16:47:01.343Z,96029.47
2023-02-01T16:49:30.231Z,96024.00
2023-02-01T16:52:03.167Z,96026.44
2023-02-01T16:54:33.952Z,96007.84
2023-02-01T16:57:03.052Z,96015.22
2023-02-01T16:59:33.337Z,96013.28
2023-02-01T17:02:52.119Z,96008.81
2023-02-01T17:05:21.115Z,96009.78
2023-02-01T17:07:49.673Z,96016.31
2023-02-01T17:10:33.220Z,96002.13
2023-02-01T17:16:34.458Z,96003.50
2023-02-01T17:19:06.050Z,95999.03
2023-02-01T17:21:39.216Z,96017.34
2023-02-01T17:24:09.605Z,96004.66
2023-02-01T17:26:41.378Z,96007.19
2023-02-01T17:32:26.534Z,96030.31
2023-02-01T17:34:55.196Z,96015.78
2023-02-01T17:37:29.803Z,95995.28
2023-02-01T17:39:58.553Z,96003.28
2023-02-01T17:42:28.834Z,96015.94
2023-02-01T17:44:59.905Z,95995.03
2023-02-01T17:47:30.055Z,96012.66
2023-02-01T17:50:00.545Z,96011.34
2023-02-01T17:52:30.045Z,96008.88
2023-02-01T17:55:04.132Z,96009.84
2023-02-01T17:57:38.244Z,96015.13
2023-02-01T18:00:08.446Z,95986.22
2023-02-01T18:02:38.445Z,96001.25
2023-02-01T18:05:15.969Z,95995.13
2023-02-01T18:07:46.267Z,95991.06
2023-02-01T18:10:17.131Z,95997.03
2023-02-01T18:12:46.198Z,96000.94
2023-02-01T18:15:19.317Z,95983.78
2023-02-01T18:17:52.370Z,95984.03
2023-02-01T18:20:26.743Z,95988.44
2023-02-01T18:23:04.097Z,95992.91
2023-02-01T18:25:37.431Z,95991.59
2023-02-01T18:28:08.997Z,95986.97
2023-02-01T18:30:40.542Z,95988.34
2023-02-01T18:33:13.334Z,96001.50
2023-02-01T18:35:42.412Z,95995.72
2023-02-01T18:38:11.486Z,95988.91
2023-02-01T18:40:43.687Z,95994.56
2023-02-01T18:43:47.995Z,96004.69
2023-02-01T18:46:16.996Z,96009.31
2023-02-01T18:48:48.808Z,96016.84
2023-02-01T18:51:20.227Z,96005.25
2023-02-01T18:53:49.175Z,96008.50
2023-02-01T18:56:19.843Z,96005.00
2023-02-01T18:58:59.418Z,96011.63
2023-02-01T19:01:29.137Z,96008.88
2023-02-01T19:04:05.328Z,96009.16
2023-02-01T19:06:42.389Z,95998.38
2023-02-01T19:09:14.050Z,96014.09
2023-02-01T19:11:45.431Z,96008.59
2023-02-01T19:14:14.380Z,96000.84
2023-02-01T19:16:43.298Z,96004.44
2023-02-01T19:19:15.575Z,96007.72
2023-02-01T19:21:44.266Z,95994.47
2023-02-01T19:24:13.474Z,95990.34
2023-02-01T19:26:49.117Z,96003.41
2023-02-01T19:32:03.097Z,95982.63
2023-02-01T19:34:34.152Z,95982.78
2023-02-01T19:37:05.961Z,95986.13
2023-02-01T19:39:34.650Z,95969.47
2023-02-01T19:42:04.301Z,95981.44
2023-02-01T19:44:33.409Z,95975.44
2023-02-01T19:47:04.414Z,95977.13
2023-02-01T19:49:59.001Z,95975.34
2023-02-01T19:52:27.597Z,95965.16
2023-02-01T19:54:56.307Z,95960.25
2023-02-01T19:57:25.375Z,95967.16
2023-02-01T19:59:54.176Z,95959.19
2023-02-01T20:02:23.112Z,95948.34
2023-02-01T20:04:57.254Z,95961.59
2023-02-01T20:07:34.056Z,95947.94
2023-02-01T20:10:03.188Z,95960.06
2023-02-01T20:12:54.254Z,95963.94
2023-02-01T20:15:27.678Z,95974.94
2023-02-01T20:17:56.878Z,95973.59
2023-02-01T20:20:25.402Z,95963.31
2023-02-01T20:22:55.486Z,95955.28
2023-02-01T20:25:24.551Z,95963.44
2023-02-01T20:28:01.870Z,95959.44
2023-02-01T20:30:32.652Z,95960.53
2023-02-01T20:33:01.838Z,95948.41
2023-02-01T20:35:30.820Z,95942.00
2023-02-01T20:38:01.985Z,95946.34
2023-02-01T20:40:31.748Z,95943.81
2023-02-01T20:43:00.386Z,95956.47
2023-02-01T20:45:29.141Z,95934.75
2023-02-01T20:47:58.295Z,95944.19
2023-02-01T20:50:26.787Z,95939.97
2023-02-01T20:52:55.681Z,95918.66
2023-02-01T20:55:26.468Z,95931.50
2023-02-01T20:57:55.559Z,95925.13
2023-02-01T21:00:30.468Z,95939.56
2023-02-01T21:02:59.371Z,95927.06
2023-02-01T21:05:40.156Z,95942.41
2023-02-01T21:08:10.236Z,95923.00
2023-02-01T21:10:43.101Z,95922.09
2023-02-01T21:13:14.926Z,95904.69
2023-02-01T21:15:47.426Z,95915.94
2023-02-01T21:18:16.646Z,95911.69
2023-02-01T21:20:49.197Z,95924.34
2023-02-01T21:23:19.168Z,95922.03
2023-02-01T21:25:52.149Z,95914.00
2023-02-01T21:28:21.303Z,95914.16
2023-02-01T21:30:50.026Z,95923.28
2023-02-01T21:33:22.122Z,95902.00
2023-02-01T21:35:52.110Z,95903.38
2023-02-01T21:38:20.599Z,95915.78
2023-02-01T21:41:11.583Z,95897.31
2023-02-01T21:43:40.700Z,95899.94
2023-02-01T21:46:09.727Z,95908.28
2023-02-01T21:49:04.469Z,95916.59
2023-02-01T21:51:30.526Z,95931.91
2023-02-01T21:54:00.084Z,95902.75
2023-02-01T21:56:30.303Z,95916.94
2023-02-01T21:59:02.257Z,95932.03
2023-02-01T22:01:31.140Z,95946.47
2023-02-01T22:04:00.175Z,95923.28
2023-02-01T22:06:30.476Z,95921.59
2023-02-01T22:08:59.111Z,95909.91
2023-02-01T22:11:29.752Z,95910.63
2023-02-01T22:14:01.248Z,95899.09
2023-02-01T22:16:31.867Z,95897.50
2023-02-01T22:19:00.643Z,95889.00
2023-02-01T22:21:29.366Z,95890.28
2023-02-01T22:24:01.742Z,95887.16
2023-02-01T22:26:32.212Z,95903.84
2023-02-01T22:29:01.195Z,95876.63
2023-02-01T22:31:32.229Z,95873.94
2023-02-01T22:34:01.345Z,95868.88
2023-02-01T22:36:29.926Z,95886.50
2023-02-01T22:38:59.017Z,95867.50
2023-02-01T22:41:28.127Z,95887.91
2023-02-01T22:43:58.035Z,95874.97
2023-02-01T22:46:27.273Z,95876.00
2023-02-01T22:48:56.308Z,95885.63
2023-02-01T22:51:28.496Z,95873.50
2023-02-01T22:54:01.089Z,95883.31
2023-02-01T22:56:31.895Z,95873.78
2023-02-01T22:59:03.195Z,95862.19
2023-02-01T23:01:33.153Z,95867.47
2023-02-01T23:04:03.640Z,95861.03
2023-02-01T23:06:34.968Z,95849.13
2023-02-01T23:09:05.840Z,95852.44
2023-02-01T23:11:37.440Z,95833.03
2023-02-01T23:14:08.424Z,95845.69
2023-02-01T23:16:37.465Z,95838.63
2023-02-01T23:19:06.621Z,95833.66
2023-02-01T23:21:35.305Z,95831.22
2023-02-01T23:24:05.072Z,95815.03
2023-02-01T23:26:34.189Z,95817.34
2023-02-01T23:29:17.322Z,95813.00
2023-02-01T23:32:06.210Z,95822.50
2023-02-01T23:34:34.567Z,95837.22
2023-02-01T23:37:03.480Z,95824.28
2023-02-01T23:39:33.391Z,95835.63
2023-02-01T23:42:07.551Z,95836.09
2023-02-01T23:44:36.089Z,95829.63
2023-02-01T23:47:06.160Z,95826.69
2023-02-01T23:49:34.780Z,95832.00
2023-02-01T23:52:03.365Z,95815.91
2023-02-01T23:54:32.127Z,95835.44
2023-02-01T23:57:00.718Z,95825.66
2023-02-01T23:59:30.774Z,95810.22
